Time;durP1;ratioP1;P1;durP2;ratioP2;P2;SDS_P1;SDS_P2;PMS_P1;PMS_P2;Temp;Humidity;BMP_temperature;BMP_pressure;BME280_temperature;BME280_humidity;BME280_pressure;Samples;Min_cycle;Max_cycle;Signal;HPM_P1;HPM_P2
2023/08/23 00:00:31;;;;;;;14.20;10.23;;;32.40;99.90;;;;;;5074410;28;20043;-68
2023/08/23 00:02:57;;;;;;;14.60;10.90;;;32.30;99.90;;;;;;5075373;28;20032;-68
2023/08/23 00:05:22;;;;;;;10.85;9.77;;;32.30;99.90;;;;;;5075406;28;20114;-68
2023/08/23 00:07:48;;;;;;;12.85;10.93;;;32.20;99.90;;;;;;5084404;28;20032;-67
2023/08/23 00:10:14;;;;;;;12.25;10.27;;;32.20;99.90;;;;;;5061776;28;20036;-67
2023/08/23 00:12:39;;;;;;;13.30;11.23;;;32.10;99.90;;;;;;5070681;28;20055;-68
2023/08/23 00:15:06;;;;;;;11.15;10.13;;;32.00;99.90;;;;;;5075608;28;20039;-68
2023/08/23 00:17:31;;;;;;;11.60;10.50;;;32.00;99.90;;;;;;5073348;28;20506;-68
2023/08/23 00:19:57;;;;;;;14.10;10.52;;;32.00;99.90;;;;;;5073355;28;20028;-67
2023/08/23 00:22:23;;;;;;;11.63;9.85;;;32.10;99.90;;;;;;5077876;28;20024;-67
2023/08/23 00:24:48;;;;;;;11.50;10.43;;;32.00;99.90;;;;;;5075416;28;20433;-67
2023/08/23 00:27:14;;;;;;;11.73;10.63;;;32.10;99.90;;;;;;5073148;28;20086;-68
2023/08/23 00:29:40;;;;;;;11.23;10.18;;;32.10;99.90;;;;;;5074895;28;20051;-68
2023/08/23 00:32:05;;;;;;;12.10;10.75;;;31.90;99.90;;;;;;5074394;28;20055;-67
2023/08/23 00:34:31;;;;;;;11.73;10.52;;;32.00;99.90;;;;;;5075166;28;20043;-67
2023/08/23 00:36:57;;;;;;;11.98;10.10;;;32.00;99.90;;;;;;5071866;28;20036;-67
2023/08/23 00:39:23;;;;;;;11.43;10.27;;;32.00;99.90;;;;;;5066853;28;20035;-67
2023/08/23 00:41:49;;;;;;;13.25;10.73;;;31.90;99.90;;;;;;5074714;28;20473;-68
2023/08/23 00:44:15;;;;;;;10.60;9.68;;;31.90;99.90;;;;;;5074048;28;20020;-68
2023/08/23 00:46:40;;;;;;;12.32;10.13;;;31.90;99.90;;;;;;5073444;28;20056;-67
2023/08/23 00:49:07;;;;;;;10.90;9.82;;;31.90;99.90;;;;;;5072900;28;20020;-67
2023/08/23 00:51:33;;;;;;;11.30;9.77;;;31.90;99.90;;;;;;5074532;28;20041;-68
2023/08/23 00:53:59;;;;;;;11.80;10.70;;;31.90;99.90;;;;;;5072972;28;20017;-68
2023/08/23 00:56:26;;;;;;;11.13;10.02;;;31.80;99.90;;;;;;5074177;28;20032;-68
2023/08/23 00:58:51;;;;;;;14.15;10.48;;;31.90;99.90;;;;;;5072915;28;20024;-67
2023/08/23 01:01:17;;;;;;;10.50;9.48;;;31.80;99.90;;;;;;5073546;28;20508;-68
2023/08/23 01:03:43;;;;;;;11.57;10.52;;;31.80;99.90;;;;;;5072995;28;20020;-68
2023/08/23 01:06:31;;;;;;;10.88;9.88;;;31.80;99.90;;;;;;5073757;28;20060;-68
2023/08/23 01:09:21;;;;;;;14.52;10.43;;;31.70;99.90;;;;;;5073425;28;20032;-68
2023/08/23 01:11:51;;;;;;;10.73;9.73;;;31.70;99.90;;;;;;5060568;28;20024;-68
2023/08/23 01:14:31;;;;;;;11.25;10.15;;;31.70;99.90;;;;;;5085629;28;20029;-67
2023/08/23 01:16:59;;;;;;;11.23;10.02;;;31.70;99.90;;;;;;5074104;28;20481;-67
2023/08/23 01:19:42;;;;;;;12.68;10.23;;;31.70;99.90;;;;;;5073539;28;20069;-67
2023/08/23 01:22:10;;;;;;;13.00;9.75;;;31.60;99.90;;;;;;5072514;28;20039;-67
2023/08/23 01:24:36;;;;;;;12.65;10.10;;;31.60;99.90;;;;;;5071048;28;20027;-68
2023/08/23 01:27:02;;;;;;;11.55;9.18;;;31.70;99.90;;;;;;5073017;28;20017;-68
2023/08/23 01:29:28;;;;;;;11.30;10.15;;;31.60;99.90;;;;;;5072272;28;20473;-68
2023/08/23 01:32:12;;;;;;;10.32;9.25;;;31.60;99.90;;;;;;5072280;28;20107;-68
2023/08/23 01:34:43;;;;;;;11.02;9.93;;;31.60;99.90;;;;;;5071107;28;20032;-67
2023/08/23 01:37:10;;;;;;;10.80;9.68;;;31.60;99.90;;;;;;5075915;28;20039;-67
2023/08/23 01:39:37;;;;;;;12.07;9.95;;;31.60;99.90;;;;;;5070583;28;20104;-67
2023/08/23 01:42:03;;;;;;;10.38;9.32;;;31.60;99.90;;;;;;5072251;28;20393;-68
2023/08/23 01:44:29;;;;;;;10.30;9.40;;;31.60;99.90;;;;;;5071817;28;20025;-67
2023/08/23 01:46:54;;;;;;;11.23;9.48;;;31.60;99.90;;;;;;5071902;28;20409;-68
2023/08/23 01:49:20;;;;;;;11.43;10.23;;;31.50;99.90;;;;;;5073065;28;20038;-67
2023/08/23 01:51:46;;;;;;;11.88;10.57;;;31.50;99.90;;;;;;5071231;28;20582;-67
2023/08/23 01:54:11;;;;;;;11.13;10.10;;;31.50;99.90;;;;;;5071619;28;20438;-67
2023/08/23 01:56:37;;;;;;;14.45;9.90;;;31.50;99.90;;;;;;5073106;28;20079;-68
2023/08/23 01:59:03;;;;;;;15.73;9.88;;;31.50;99.90;;;;;;5072671;28;20024;-67
2023/08/23 02:01:28;;;;;;;13.52;10.85;;;31.40;99.90;;;;;;5073618;28;20081;-67
2023/08/23 02:03:54;;;;;;;11.30;9.07;;;31.50;99.90;;;;;;5071444;28;20016;-67
2023/08/23 02:06:19;;;;;;;10.60;9.73;;;31.40;99.90;;;;;;5073358;28;20036;-67
2023/08/23 02:08:45;;;;;;;10.90;9.77;;;31.40;99.90;;;;;;5069251;28;20062;-67
2023/08/23 02:11:11;;;;;;;11.18;9.20;;;31.30;99.90;;;;;;5072783;28;20025;-67
2023/08/23 02:13:36;;;;;;;10.43;9.45;;;31.40;99.90;;;;;;5073400;28;20115;-67
2023/08/23 02:16:02;;;;;;;9.98;8.98;;;31.30;99.90;;;;;;5072977;28;20094;-67
2023/08/23 02:18:28;;;;;;;11.38;9.88;;;31.30;99.90;;;;;;5072269;28;20376;-67
2023/08/23 02:20:57;;;;;;;11.73;10.10;;;31.40;99.90;;;;;;5073275;28;20108;-67
2023/08/23 02:23:23;;;;;;;11.85;10.75;;;31.30;99.90;;;;;;5071001;28;20036;-67
2023/08/23 02:25:49;;;;;;;10.70;9.60;;;31.30;99.90;;;;;;5071662;28;20440;-67
2023/08/23 02:28:15;;;;;;;14.75;10.70;;;31.30;99.90;;;;;;5072322;28;20037;-67
2023/08/23 02:30:41;;;;;;;13.20;10.10;;;31.30;99.90;;;;;;5072792;28;20038;-67
2023/08/23 02:33:07;;;;;;;11.32;10.20;;;31.30;99.90;;;;;;5070919;28;20032;-68
2023/08/23 02:35:32;;;;;;;11.57;10.02;;;31.30;99.90;;;;;;5072699;28;20035;-67
2023/08/23 02:38:00;;;;;;;12.02;10.80;;;31.20;99.90;;;;;;5069480;28;20037;-68
2023/08/23 02:40:25;;;;;;;10.73;9.73;;;31.10;99.90;;;;;;5071054;28;20029;-67
2023/08/23 02:42:55;;;;;;;10.98;9.88;;;31.20;99.90;;;;;;5071180;28;20044;-67
2023/08/23 02:45:21;;;;;;;10.98;10.07;;;31.20;99.90;;;;;;5068117;28;20123;-67
2023/08/23 02:47:46;;;;;;;11.10;9.60;;;31.10;99.90;;;;;;5071412;28;20485;-67
2023/08/23 02:50:12;;;;;;;12.25;10.38;;;31.20;99.90;;;;;;5070998;28;20020;-68
2023/08/23 02:52:38;;;;;;;11.88;10.73;;;31.20;99.90;;;;;;5072448;28;20056;-67
2023/08/23 02:55:04;;;;;;;15.93;11.02;;;31.20;99.90;;;;;;5070964;28;20025;-67
2023/08/23 02:57:29;;;;;;;12.35;10.10;;;31.10;99.90;;;;;;5071272;28;20116;-68
2023/08/23 02:59:55;;;;;;;12.18;9.95;;;31.10;99.90;;;;;;5070103;28;20016;-67
2023/08/23 03:02:20;;;;;;;11.38;10.25;;;31.10;99.90;;;;;;5072823;28;20044;-67
2023/08/23 03:04:46;;;;;;;12.52;11.32;;;31.10;99.90;;;;;;5071561;28;20020;-67
2023/08/23 03:07:12;;;;;;;11.10;9.90;;;31.10;99.90;;;;;;5071673;28;20032;-67
2023/08/23 03:09:38;;;;;;;10.50;9.57;;;31.10;99.90;;;;;;5070856;28;20029;-67
2023/08/23 03:12:04;;;;;;;13.30;10.00;;;31.10;99.90;;;;;;5071666;28;20024;-67
2023/08/23 03:14:30;;;;;;;10.88;9.88;;;31.10;99.90;;;;;;5060866;28;20532;-67
2023/08/23 03:16:55;;;;;;;11.18;9.73;;;31.20;99.90;;;;;;5070019;28;20059;-67
2023/08/23 03:19:21;;;;;;;11.77;10.07;;;31.10;99.90;;;;;;5071783;28;20032;-67
2023/08/23 03:21:47;;;;;;;11.40;10.30;;;31.00;99.90;;;;;;5071213;28;20033;-68
2023/08/23 03:24:12;;;;;;;15.13;9.75;;;31.10;99.90;;;;;;5075396;28;20123;-67
2023/08/23 03:26:38;;;;;;;11.00;10.05;;;31.10;99.90;;;;;;5075059;28;20064;-67
2023/08/23 03:29:04;;;;;;;10.85;9.90;;;31.00;99.90;;;;;;5075094;28;20074;-67
2023/08/23 03:31:29;;;;;;;12.65;10.52;;;31.10;99.90;;;;;;5075962;28;20402;-67
2023/08/23 03:33:55;;;;;;;11.25;10.07;;;31.10;99.90;;;;;;5076403;28;20044;-68
2023/08/23 03:36:22;;;;;;;11.57;10.48;;;31.00;99.90;;;;;;5088944;28;20048;-67
2023/08/23 03:38:47;;;;;;;11.13;10.13;;;31.00;99.90;;;;;;5074199;28;20470;-68
2023/08/23 03:41:14;;;;;;;11.43;10.38;;;31.00;99.90;;;;;;5076050;28;20047;-68
2023/08/23 03:43:40;;;;;;;12.43;11.27;;;31.00;99.90;;;;;;5072009;28;20024;-68
2023/08/23 03:46:05;;;;;;;10.60;9.60;;;31.00;99.90;;;;;;5075619;28;20135;-68
2023/08/23 03:48:31;;;;;;;11.60;10.50;;;31.00;99.90;;;;;;5075217;28;20028;-68
2023/08/23 03:51:00;;;;;;;11.10;10.05;;;31.00;99.90;;;;;;5075779;28;20070;-68
2023/08/23 03:53:26;;;;;;;11.48;10.38;;;31.00;99.90;;;;;;5075047;28;20050;-68
2023/08/23 03:55:53;;;;;;;11.30;10.15;;;31.00;99.90;;;;;;5073782;28;20055;-67
2023/08/23 03:58:20;;;;;;;11.30;10.25;;;31.00;99.90;;;;;;5073958;28;20054;-67
2023/08/23 04:00:52;;;;;;;11.15;10.15;;;31.00;99.90;;;;;;5075744;28;20056;-67
2023/08/23 04:03:18;;;;;;;11.17;10.13;;;31.00;99.90;;;;;;5073962;28;20159;-67
2023/08/23 04:05:44;;;;;;;10.73;9.73;;;31.00;99.90;;;;;;5075335;28;20546;-67
2023/08/23 04:08:10;;;;;;;10.60;9.52;;;31.00;99.90;;;;;;5074544;28;20401;-67
2023/08/23 04:10:37;;;;;;;10.63;9.70;;;31.00;99.90;;;;;;5076015;28;20449;-67
2023/08/23 04:13:02;;;;;;;11.32;10.32;;;30.90;99.90;;;;;;5076329;28;20039;-67
2023/08/23 04:15:28;;;;;;;10.95;9.80;;;30.90;99.90;;;;;;5076758;28;20479;-68
2023/08/23 04:17:54;;;;;;;10.82;9.77;;;30.90;99.90;;;;;;5074294;28;20036;-68
2023/08/23 04:20:19;;;;;;;11.20;10.10;;;30.90;99.90;;;;;;5075370;28;20468;-68
2023/08/23 04:22:45;;;;;;;11.48;10.27;;;30.90;99.90;;;;;;5074709;28;20044;-67
2023/08/23 04:25:11;;;;;;;10.80;9.80;;;30.90;99.90;;;;;;5075014;28;20434;-68
2023/08/23 04:27:37;;;;;;;11.73;10.52;;;30.90;99.90;;;;;;5074224;28;20032;-67
2023/08/23 04:30:06;;;;;;;11.40;10.23;;;30.90;99.90;;;;;;5106782;28;20029;-67
2023/08/23 04:32:32;;;;;;;11.45;10.43;;;30.80;99.90;;;;;;5074766;28;20025;-68
2023/08/23 04:34:58;;;;;;;11.63;10.43;;;30.80;99.90;;;;;;5072662;28;20183;-68
2023/08/23 04:37:24;;;;;;;11.35;10.30;;;;;;;;;;5058959;28;20111;-68
2023/08/23 04:39:50;;;;;;;12.13;9.85;;;;;;;;;;5074921;28;20035;-68
2023/08/23 04:42:16;;;;;;;11.88;10.60;;;30.80;99.90;;;;;;5074142;28;20016;-67
2023/08/23 04:44:41;;;;;;;11.20;10.13;;;30.70;99.90;;;;;;5074606;28;20499;-68
2023/08/23 04:47:07;;;;;;;11.23;10.20;;;30.70;99.90;;;;;;5072771;28;20101;-68
2023/08/23 04:49:33;;;;;;;10.48;9.48;;;30.80;99.90;;;;;;5073415;28;20099;-67
2023/08/23 04:51:58;;;;;;;13.00;10.50;;;30.80;99.90;;;;;;5074082;28;20079;-68
2023/08/23 04:54:24;;;;;;;13.20;9.52;;;30.80;99.90;;;;;;5074524;28;20024;-67
2023/08/23 04:56:50;;;;;;;11.32;9.65;;;30.80;99.90;;;;;;5073555;28;20032;-68
2023/08/23 04:59:15;;;;;;;12.13;10.05;;;30.70;99.90;;;;;;5074278;28;20032;-67
2023/08/23 05:01:41;;;;;;;11.68;10.48;;;30.80;99.90;;;;;;5073750;28;20036;-67
2023/08/23 05:04:07;;;;;;;11.40;9.88;;;30.90;99.90;;;;;;5072287;28;20052;-68
2023/08/23 05:06:34;;;;;;;11.68;10.45;;;30.80;99.90;;;;;;5073347;28;20056;-67
2023/08/23 05:09:00;;;;;;;13.93;10.60;;;30.80;99.90;;;;;;5072298;28;20111;-67
2023/08/23 05:11:26;;;;;;;10.68;9.35;;;30.80;99.90;;;;;;5074256;28;20060;-68
2023/08/23 05:13:51;;;;;;;16.30;10.68;;;30.80;99.90;;;;;;5080590;28;20028;-67
2023/08/23 05:16:17;;;;;;;11.00;10.02;;;30.70;99.90;;;;;;5079646;28;20039;-67
2023/08/23 05:18:43;;;;;;;12.45;10.95;;;30.80;99.90;;;;;;5073285;28;20024;-67
2023/08/23 05:21:09;;;;;;;11.57;10.30;;;30.70;99.90;;;;;;5074223;28;20030;-67
2023/08/23 05:23:35;;;;;;;11.30;10.23;;;30.70;99.90;;;;;;5071306;28;20381;-68
2023/08/23 05:26:02;;;;;;;13.75;10.00;;;30.70;99.90;;;;;;5069074;28;20040;-67
2023/08/23 05:28:28;;;;;;;11.63;10.52;;;30.70;99.90;;;;;;5073790;28;20021;-67
2023/08/23 05:30:53;;;;;;;12.52;11.30;;;30.70;99.90;;;;;;5071680;28;20039;-67
2023/08/23 05:33:20;;;;;;;11.10;10.05;;;30.80;99.90;;;;;;5073904;28;20036;-67
2023/08/23 05:35:46;;;;;;;12.32;10.82;;;30.80;99.90;;;;;;5071635;28;20020;-67
2023/08/23 05:38:11;;;;;;;12.27;11.07;;;30.80;99.90;;;;;;5072128;28;20035;-67
2023/08/23 05:40:38;;;;;;;12.82;11.27;;;30.80;99.90;;;;;;5073472;28;20020;-67
2023/08/23 05:43:07;;;;;;;14.35;10.40;;;30.80;99.90;;;;;;5072425;28;20071;-67
2023/08/23 05:45:33;;;;;;;12.88;9.82;;;30.80;99.90;;;;;;5072698;28;20098;-66
2023/08/23 05:48:00;;;;;;;12.20;11.00;;;30.80;99.90;;;;;;5072863;28;20033;-67
2023/08/23 05:50:25;;;;;;;14.68;11.10;;;30.80;99.90;;;;;;5073362;28;20028;-67
2023/08/23 05:52:51;;;;;;;11.23;10.18;;;30.80;99.90;;;;;;5072699;28;20025;-67
2023/08/23 05:55:17;;;;;;;12.60;10.18;;;30.80;99.90;;;;;;5073541;28;20512;-67
2023/08/23 05:57:43;;;;;;;12.85;10.02;;;30.70;99.90;;;;;;5072526;28;20043;-67
2023/08/23 06:00:09;;;;;;;12.48;10.85;;;30.80;99.90;;;;;;5066895;28;20335;-67
2023/08/23 06:02:35;;;;;;;11.18;9.85;;;30.80;99.90;;;;;;5070014;28;20512;-67
2023/08/23 06:05:03;;;;;;;11.00;10.00;;;30.80;99.90;;;;;;5073363;28;20047;-67
2023/08/23 06:07:29;;;;;;;11.43;10.32;;;30.80;99.90;;;;;;5072066;28;20380;-67
2023/08/23 06:09:55;;;;;;;12.23;11.00;;;30.90;99.90;;;;;;5060895;28;20051;-67
2023/08/23 06:12:24;;;;;;;11.35;10.27;;;30.90;99.90;;;;;;5071633;28;20059;-67
2023/08/23 06:14:49;;;;;;;11.85;10.68;;;30.90;99.90;;;;;;5067699;28;20112;-67
2023/08/23 06:17:16;;;;;;;11.32;10.25;;;30.90;99.90;;;;;;5072809;28;20150;-67
2023/08/23 06:19:42;;;;;;;11.45;10.20;;;30.90;99.90;;;;;;5072244;28;20024;-67
2023/08/23 06:22:08;;;;;;;11.43;10.30;;;30.90;99.90;;;;;;5072904;28;20071;-68
2023/08/23 06:24:34;;;;;;;11.82;10.70;;;31.00;99.90;;;;;;5072632;28;20420;-67
2023/08/23 06:26:59;;;;;;;14.43;10.68;;;30.90;99.90;;;;;;5070636;28;20024;-67
2023/08/23 06:29:25;;;;;;;10.90;9.98;;;30.80;99.90;;;;;;5069333;28;20040;-67
2023/08/23 06:31:51;;;;;;;10.50;9.45;;;30.90;99.90;;;;;;5068618;28;20058;-67
2023/08/23 06:34:16;;;;;;;13.25;10.27;;;30.90;99.90;;;;;;5072303;28;20020;-67
2023/08/23 06:36:42;;;;;;;12.50;9.27;;;30.80;99.90;;;;;;5072466;28;20047;-67
2023/08/23 06:39:07;;;;;;;11.43;10.40;;;30.90;99.90;;;;;;5070820;28;20043;-68
2023/08/23 06:41:33;;;;;;;10.73;9.68;;;31.00;99.90;;;;;;5072775;28;20028;-67
2023/08/23 06:44:02;;;;;;;11.25;10.05;;;30.90;99.90;;;;;;5070014;28;20020;-67
2023/08/23 06:46:29;;;;;;;11.50;10.40;;;31.00;99.90;;;;;;5070893;28;20056;-67
2023/08/23 06:48:55;;;;;;;12.77;10.40;;;31.00;99.90;;;;;;5072121;28;20048;-67
2023/08/23 06:51:21;;;;;;;12.57;10.65;;;31.00;99.90;;;;;;5071849;28;20099;-68
2023/08/23 06:53:49;;;;;;;12.27;11.02;;;31.10;99.90;;;;;;5070911;28;20024;-68
2023/08/23 06:56:15;;;;;;;14.05;10.30;;;31.00;99.90;;;;;;5072795;28;20048;-67
2023/08/23 06:58:41;;;;;;;12.57;11.25;;;31.10;99.90;;;;;;5074027;28;20036;-68
2023/08/23 07:01:09;;;;;;;12.07;10.55;;;31.10;99.90;;;;;;5075895;28;20028;-68
2023/08/23 07:03:34;;;;;;;12.48;10.48;;;31.10;99.90;;;;;;5075793;28;20016;-68
2023/08/23 07:06:02;;;;;;;14.07;10.75;;;31.10;99.90;;;;;;5076440;28;20132;-68
2023/08/23 07:08:28;;;;;;;12.80;10.73;;;31.10;99.90;;;;;;5075858;28;20529;-68
2023/08/23 07:10:53;;;;;;;13.98;11.60;;;31.20;99.90;;;;;;5075711;28;20111;-68
2023/08/23 07:13:19;;;;;;;13.10;11.60;;;31.10;99.90;;;;;;5075786;28;20485;-67
2023/08/23 07:15:45;;;;;;;12.07;10.65;;;31.10;99.90;;;;;;5076207;28;20112;-67
2023/08/23 07:18:10;;;;;;;15.02;11.48;;;31.10;99.90;;;;;;5075012;28;20078;-67
2023/08/23 07:20:36;;;;;;;15.00;10.98;;;31.20;99.90;;;;;;5076443;28;20039;-67
2023/08/23 07:23:03;;;;;;;15.25;11.32;;;31.20;99.90;;;;;;5075750;28;20058;-67
2023/08/23 07:25:28;;;;;;;16.23;11.57;;;31.20;99.90;;;;;;5074675;28;20086;-67
2023/08/23 07:27:54;;;;;;;17.10;11.85;;;31.20;99.90;;;;;;5071273;28;20363;-67
2023/08/23 07:30:20;;;;;;;19.20;12.45;;;31.20;99.90;;;;;;5075938;28;20024;-67
2023/08/23 07:32:45;;;;;;;15.45;10.98;;;31.20;99.90;;;;;;5075213;28;20009;-68
2023/08/23 07:35:11;;;;;;;13.13;11.05;;;31.20;99.90;;;;;;5075761;28;20036;-67
2023/08/23 07:37:38;;;;;;;13.63;12.32;;;31.20;99.90;;;;;;5075545;28;20094;-68
2023/08/23 07:40:04;;;;;;;15.43;10.93;;;31.20;99.90;;;;;;5076044;28;20024;-68
2023/08/23 07:42:30;;;;;;;12.18;10.98;;;31.30;99.90;;;;;;5075787;28;20458;-68
2023/08/23 07:44:56;;;;;;;16.08;10.73;;;31.20;99.90;;;;;;5074443;28;20462;-67
2023/08/23 07:47:21;;;;;;;11.68;10.48;;;31.20;99.90;;;;;;5075448;28;20051;-67
2023/08/23 07:49:48;;;;;;;12.40;11.20;;;31.30;99.90;;;;;;5073078;28;20034;-67
2023/08/23 07:52:14;;;;;;;13.13;11.85;;;31.30;99.90;;;;;;5074377;28;20059;-68
2023/08/23 07:54:40;;;;;;;11.40;10.25;;;31.30;99.90;;;;;;5074839;28;20052;-67
2023/08/23 07:57:06;;;;;;;12.60;11.25;;;31.40;99.90;;;;;;5108306;28;20447;-68
2023/08/23 07:59:31;;;;;;;14.13;11.43;;;31.30;99.90;;;;;;5074025;28;20044;-68
2023/08/23 08:01:57;;;;;;;16.17;11.20;;;31.40;99.90;;;;;;5074326;28;20035;-68
2023/08/23 08:04:22;;;;;;;13.02;11.75;;;31.40;99.90;;;;;;5075397;28;20094;-67
2023/08/23 08:06:48;;;;;;;19.95;12.18;;;31.40;99.90;;;;;;5074486;28;20396;-67
2023/08/23 08:09:14;;;;;;;13.60;11.60;;;31.50;99.90;;;;;;5074856;28;20525;-68
2023/08/23 08:11:39;;;;;;;13.95;12.30;;;31.50;99.90;;;;;;5073945;28;20029;-67
2023/08/23 08:14:05;;;;;;;12.82;11.23;;;31.50;99.90;;;;;;5085651;28;20016;-67
2023/08/23 08:16:31;;;;;;;14.10;12.05;;;31.50;99.90;;;;;;5078475;28;20082;-67
2023/08/23 08:18:56;;;;;;;14.60;11.93;;;31.60;99.90;;;;;;5074167;28;20107;-67
2023/08/23 08:21:22;;;;;;;13.60;12.18;;;31.60;99.90;;;;;;5073479;28;20044;-67
2023/08/23 08:23:48;;;;;;;14.30;12.90;;;31.60;99.90;;;;;;5075479;28;20037;-67
2023/08/23 08:26:14;;;;;;;13.93;12.25;;;31.50;99.90;;;;;;5073570;28;20411;-68
2023/08/23 08:28:43;;;;;;;19.73;13.65;;;31.70;99.90;;;;;;5072263;28;20113;-67
2023/08/23 08:31:10;;;;;;;15.32;12.50;;;31.70;99.90;;;;;;5075277;28;20347;-67
2023/08/23 08:33:37;;;;;;;13.70;12.20;;;31.70;99.90;;;;;;5074205;28;20029;-67
2023/08/23 08:36:03;;;;;;;13.40;12.00;;;31.80;99.90;;;;;;5073884;28;20062;-67
2023/08/23 08:38:28;;;;;;;12.50;11.25;;;31.80;99.90;;;;;;5073794;28;20041;-67
2023/08/23 08:40:54;;;;;;;13.32;12.05;;;31.90;99.90;;;;;;5075027;28;20024;-67
2023/08/23 08:43:20;;;;;;;13.73;12.27;;;31.80;99.90;;;;;;5072017;28;20131;-67
2023/08/23 08:45:46;;;;;;;12.43;11.13;;;31.90;99.90;;;;;;5074529;28;20132;-67
2023/08/23 08:48:12;;;;;;;13.05;11.80;;;31.90;99.90;;;;;;5073892;28;20070;-68
2023/08/23 08:50:40;;;;;;;12.60;11.50;;;31.90;99.90;;;;;;5074279;28;20020;-67
2023/08/23 08:53:07;;;;;;;12.80;11.40;;;31.90;99.90;;;;;;5072681;28;20028;-67
2023/08/23 08:55:35;;;;;;;12.57;11.38;;;32.00;99.90;;;;;;5074266;28;20042;-67
2023/08/23 08:58:02;;;;;;;13.05;11.75;;;32.00;99.90;;;;;;5073723;28;20935;-68
2023/08/23 09:00:28;;;;;;;15.30;11.77;;;32.10;99.90;;;;;;5073311;28;20017;-67
2023/08/23 09:02:55;;;;;;;13.07;11.65;;;32.20;99.90;;;;;;5061009;28;20054;-67
2023/08/23 09:05:22;;;;;;;12.57;11.10;;;32.10;99.90;;;;;;5073498;28;20028;-67
2023/08/23 09:07:49;;;;;;;15.02;11.20;;;32.20;99.90;;;;;;5074068;28;20020;-67
2023/08/23 09:10:15;;;;;;;13.57;11.48;;;32.20;99.90;;;;;;5072834;28;20024;-67
2023/08/23 09:12:41;;;;;;;15.05;11.68;;;32.30;99.90;;;;;;5073693;28;20040;-67
2023/08/23 09:15:07;;;;;;;13.38;11.63;;;32.30;99.90;;;;;;5083234;28;20028;-67
2023/08/23 09:17:34;;;;;;;11.68;10.35;;;32.30;99.90;;;;;;5071472;28;20037;-66
2023/08/23 09:20:08;;;;;;;12.07;11.02;;;32.30;99.90;;;;;;5073032;28;20509;-66
2023/08/23 09:22:34;;;;;;;11.77;10.55;;;32.30;99.90;;;;;;5072118;28;20023;-66
2023/08/23 09:25:01;;;;;;;12.35;11.18;;;32.30;99.90;;;;;;5073785;28;20043;-66
2023/08/23 09:27:27;;;;;;;12.05;11.05;;;32.40;99.90;;;;;;5070852;28;20032;-66
2023/08/23 09:29:54;;;;;;;11.35;10.30;;;32.50;99.90;;;;;;5073891;28;20024;-67
2023/08/23 09:32:20;;;;;;;11.73;10.55;;;32.50;99.90;;;;;;5073052;28;20469;-67
2023/08/23 09:34:46;;;;;;;11.23;10.20;;;32.50;99.90;;;;;;5072357;28;20386;-66
2023/08/23 09:37:12;;;;;;;13.88;10.50;;;32.60;99.90;;;;;;5072101;28;20032;-66
2023/08/23 09:39:37;;;;;;;13.80;12.32;;;32.60;99.90;;;;;;5071152;28;20025;-66
2023/08/23 09:42:06;;;;;;;17.25;10.25;;;32.70;99.90;;;;;;5073435;28;20462;-66
2023/08/23 09:44:41;;;;;;;11.43;10.43;;;32.80;99.90;;;;;;5073126;28;20025;-67
2023/08/23 09:47:21;;;;;;;11.43;10.35;;;32.80;99.90;;;;;;5073134;28;20051;-66
2023/08/23 09:49:48;;;;;;;12.23;10.75;;;32.80;99.90;;;;;;5071782;28;20499;-66
2023/08/23 09:52:14;;;;;;;13.13;11.68;;;32.80;99.90;;;;;;5072422;28;20070;-67
2023/08/23 09:55:11;;;;;;;12.35;11.23;;;32.90;99.90;;;;;;5072603;28;20028;-66
2023/08/23 09:57:37;;;;;;;12.18;10.90;;;33.00;99.90;;;;;;5069501;28;20436;-67
2023/08/23 10:00:03;;;;;;;12.98;11.68;;;33.10;99.90;;;;;;5069479;28;20428;-67
2023/08/23 10:02:29;;;;;;;12.63;11.43;;;33.10;99.90;;;;;;5072642;28;20063;-67
2023/08/23 10:04:56;;;;;;;13.07;11.75;;;33.10;99.90;;;;;;5080455;28;20016;-67
2023/08/23 10:07:23;;;;;;;12.13;10.70;;;33.10;99.90;;;;;;5078034;28;20059;-67
2023/08/23 10:09:50;;;;;;;10.63;9.82;;;33.30;99.90;;;;;;5071381;28;20087;-67
2023/08/23 10:12:17;;;;;;;11.32;10.32;;;33.30;99.90;;;;;;5066448;28;20362;-69
2023/08/23 10:14:46;;;;;;;12.00;10.88;;;33.40;99.90;;;;;;5085508;28;20031;-66
2023/08/23 10:17:16;;;;;;;11.75;10.85;;;33.60;99.90;;;;;;5070709;28;20151;-66
2023/08/23 10:19:42;;;;;;;11.45;10.32;;;33.60;99.90;;;;;;5072376;28;20036;-66
2023/08/23 10:22:07;;;;;;;11.73;10.55;;;33.50;99.90;;;;;;5071669;28;20040;-62
2023/08/23 10:24:34;;;;;;;11.63;10.55;;;33.50;99.90;;;;;;5070688;28;20017;-69
2023/08/23 10:27:07;;;;;;;11.00;10.00;;;33.60;99.90;;;;;;5073177;28;20103;-69
2023/08/23 10:29:36;;;;;;;11.65;10.52;;;33.50;99.90;;;;;;5071186;28;20059;-70
2023/08/23 10:32:08;;;;;;;12.73;11.30;;;33.70;99.90;;;;;;5071973;28;20060;-71
2023/08/23 10:34:35;;;;;;;12.70;11.40;;;33.80;99.90;;;;;;5072777;28;20387;-70
2023/08/23 10:37:12;;;;;;;11.52;10.50;;;33.80;99.90;;;;;;5071819;28;20040;-70
2023/08/23 10:39:38;;;;;;;12.35;11.15;;;33.80;99.90;;;;;;5072154;28;20074;-70
2023/08/23 10:42:05;;;;;;;12.48;11.15;;;34.00;99.90;;;;;;5071311;28;20032;-70
2023/08/23 10:44:30;;;;;;;13.05;11.70;;;33.90;99.90;;;;;;5071990;28;20035;-70
2023/08/23 10:46:58;;;;;;;12.13;10.95;;;34.10;99.90;;;;;;5072045;28;20139;-70
2023/08/23 10:49:25;;;;;;;13.00;11.80;;;34.00;99.90;;;;;;5072812;28;20087;-70
2023/08/23 10:51:52;;;;;;;13.25;11.93;;;34.10;99.90;;;;;;5071838;28;20019;-70
2023/08/23 10:54:18;;;;;;;12.45;11.10;;;34.10;99.90;;;;;;5072638;28;20029;-70
2023/08/23 10:56:44;;;;;;;13.18;11.85;;;34.20;99.90;;;;;;5070129;28;20166;-70
2023/08/23 10:59:10;;;;;;;13.32;12.05;;;34.40;99.90;;;;;;5073260;28;20028;-70
2023/08/23 11:01:38;;;;;;;13.02;11.80;;;34.30;99.90;;;;;;5070337;28;20477;-70
2023/08/23 11:04:08;;;;;;;14.05;12.02;;;34.40;99.90;;;;;;5072736;28;20141;-69
2023/08/23 11:06:33;;;;;;;12.80;11.70;;;34.40;99.90;;;;;;5071294;28;20032;-69
2023/08/23 11:08:59;;;;;;;13.55;12.15;;;34.50;99.90;;;;;;5058310;28;20462;-70
2023/08/23 11:11:31;;;;;;;12.55;11.55;;;34.50;99.90;;;;;;5071612;28;20428;-69
2023/08/23 11:13:57;;;;;;;13.55;12.15;;;34.50;99.90;;;;;;5070591;28;20023;-69
2023/08/23 11:16:23;;;;;;;14.07;12.70;;;34.70;99.90;;;;;;5071527;28;20058;-69
2023/08/23 11:18:50;;;;;;;13.27;12.18;;;34.70;99.90;;;;;;5071900;28;20032;-69
2023/08/23 11:21:16;;;;;;;12.77;11.68;;;34.80;99.90;;;;;;5071797;28;20052;-69
2023/08/23 11:23:42;;;;;;;13.13;11.73;;;34.90;99.90;;;;;;5072338;28;20024;-69
2023/08/23 11:26:08;;;;;;;12.52;11.35;;;34.90;99.90;;;;;;5071684;28;20362;-69
2023/08/23 11:28:33;;;;;;;14.30;12.05;;;35.10;99.90;;;;;;5070803;28;20420;-69
2023/08/23 11:31:02;;;;;;;11.30;10.27;;;35.20;99.90;;;;;;5073516;28;20028;-69
2023/08/23 11:33:28;;;;;;;12.05;10.90;;;35.40;99.90;;;;;;5070509;28;20020;-70
2023/08/23 11:35:55;;;;;;;10.88;9.80;;;35.20;99.90;;;;;;5071473;28;20029;-71
2023/08/23 11:38:27;;;;;;;11.63;10.77;;;35.20;99.90;;;;;;5070581;28;20042;-71
2023/08/23 11:40:53;;;;;;;11.85;10.85;;;35.20;99.90;;;;;;5059324;28;20020;-71
2023/08/23 11:43:19;;;;;;;12.85;10.20;;;35.30;99.90;;;;;;5072843;28;20366;-70
2023/08/23 11:45:45;;;;;;;12.75;10.57;;;35.50;99.90;;;;;;5075590;28;20427;-71
2023/08/23 11:48:12;;;;;;;12.50;11.35;;;35.70;99.90;;;;;;5074469;28;20044;-69
2023/08/23 11:50:40;;;;;;;12.55;11.40;;;35.80;99.90;;;;;;5075634;28;20074;-70
2023/08/23 11:53:06;;;;;;;12.60;11.30;;;35.90;99.90;;;;;;5075109;28;20030;-70
2023/08/23 11:55:34;;;;;;;11.82;10.73;;;36.00;99.90;;;;;;5073895;28;20095;-70
2023/08/23 11:58:02;;;;;;;11.55;10.45;;;36.00;99.90;;;;;;5075076;28;20043;-69
2023/08/23 12:00:27;;;;;;;13.35;11.93;;;36.10;99.90;;;;;;5075161;28;20078;-70
2023/08/23 12:02:53;;;;;;;12.75;11.50;;;36.50;99.90;;;;;;5071893;28;20032;-69
2023/08/23 12:05:19;;;;;;;12.38;11.18;;;;;;;;;;5075258;28;20021;-70
2023/08/23 12:07:46;;;;;;;14.52;11.05;;;37.50;99.90;;;;;;5073987;28;20021;-70
2023/08/23 12:10:12;;;;;;;13.88;12.43;;;;;;;;;;5075893;28;20024;-70
2023/08/23 12:12:38;;;;;;;15.98;12.25;;;43.80;99.90;;;;;;5072635;28;20165;-70
2023/08/23 12:15:07;;;;;;;13.18;11.95;;;45.50;99.90;;;;;;5088948;28;20021;-70
2023/08/23 12:17:34;;;;;;;14.00;12.77;;;47.10;99.90;;;;;;5073844;28;20040;-71
2023/08/23 12:19:59;;;;;;;13.77;12.57;;;48.60;99.90;;;;;;5075061;28;20099;-70
2023/08/23 12:22:25;;;;;;;14.30;12.77;;;49.00;99.90;;;;;;5080501;28;20031;-70
2023/08/23 12:24:51;;;;;;;13.88;12.55;;;49.20;99.90;;;;;;5075900;28;20097;-70
2023/08/23 12:27:17;;;;;;;14.10;13.07;;;49.10;99.90;;;;;;5074953;28;20493;-70